SBBUSBKP

Guest
Details From SBBU - BAURU
To SBKP - Sao Paulo Viracopos
Flight Number -
Tags generated
Created
Modified
Stats Distance 114 nm / 211 km
Max Altitude 9,600 ft / 2,926 m
Waypoints 3
Social Downloads 1
Likes 0
Share VATSIM

Download

Looking for another format? Having issues loading an existing format? Contact us
Advertisement - Login to hide

Notes

Basic altitude profile: - Ascent Rate: 500ft/min - Ascent Speed: 120kts - Cruise Altitude: 750000ft - Cruise Speed: 140kts - Descent Rate: 500ft/min - Descent Speed: 150kts Options: - Use NATs: yes - Use PACOTS: yes - Use low airways: yes - Use high airways: yes

Route

SBBU PORTE SBKP

ID Type Via Altitude Latitude Longitude Leg Dist Tot Dist Heading (true) Name
O SBBU APT - 0 ft / 0 m -22.34504˚ -49.05380˚ - 0 nm - BAURU
PORTE FIX - 9,600 ft / 2,926 m -22.44917˚ -48.57917˚ 27 nm 27 nm 103° / 103° -
O SBKP APT - 0 ft / 0 m -23.00738˚ -47.13452˚ 86 nm 113 nm 113° / 112° Sao Paulo Viracopos

Altitude Profile

Advertisement - Login to hide

SBBU

Details ICAO SBBU (BAU)
Name BAURU
Region Brazil
Timezone America/Sao_Paulo (UTC-2.0)
Stats Elevation 2,025 ft / 617 m (AMSL)
Location -22.345040° -49.053801°
Runways 1
Magnetic Variation 20.401° W

METAR

SBBU 171500Z 27008KT 9999 SCT030 32/21 Q1017

Decode

TAF

TAF SBBU 170900Z 1712/1724 36005KT 9999 SCT030 TN24/1712Z TX32/1717Z PROB30 1712/1715 FEW030 PROB30 1715/1720 8000 SHRA FEW035TCU BECMG 1720/1724 04003KT 5000 TSRA FEW035CB RMK PDN

Decode

Departure Runways

ID Width Length Bearing (true) Bearing (mag) Surface Threshold Offset Overrun Length
14 115 ft / 35 m 4,925 ft / 1,501 m 122.73° 143.13° Asphalt 657 ft / 200 m 0 ft / 0 m
32 115 ft / 35 m 4,925 ft / 1,501 m 302.73° 323.13° Asphalt 0 ft / 0 m 0 ft / 0 m

SBKP

Details ICAO SBKP (VCP)
Name Sao Paulo Viracopos
Region Brazil
Timezone America/Sao_Paulo (UTC-2.0)
Stats Elevation 2,170 ft / 661 m (AMSL)
Location -23.007383° -47.134522°
Runways 1
Magnetic Variation 21.196° W

METAR

SBKP 171600Z 02009KT 9999 SCT045 31/15 Q1017

Decode

TAF

TAF SBKP 170911Z 1712/1812 06005KT CAVOK TX32/1718Z TN20/1809Z BECMG 1714/1716 31010KT SCT045 PROB40 1719/1721 8000 TSRA SCT045 FEW050CB BECMG 1721/1723 11005KT CAVOK BECMG 1809/1811 01008KT RMK PHM

Decode

Destination Runways

ID Width Length Bearing (true) Bearing (mag) Surface Threshold Offset Overrun Length
15 148 ft / 45 m 10,639 ft / 3,243 m 127.91° 149.11° Asphalt 0 ft / 0 m 205 ft / 62 m
33 148 ft / 45 m 10,639 ft / 3,243 m 307.90° 329.10° Asphalt 0 ft / 0 m 205 ft / 62 m

Approach Navaids

Runway Type Ident Frequency Range Bearing (true) Bearing (mag) Slope Elevation
15 Localiser IKP 110.30 MHz 18 nm / 33 km 127.95° 149.15° - 2,170 ft / 661 m (AMSL)
15 Glidescope IKP 110.30 MHz 10 nm / 19 km 127.90° 149.10° 3.00° 2,170 ft / 661 m (AMSL)

Popular Alternatives